sensor_id;sensor_type;location;lat;lon;timestamp;pressure;altitude;pressure_sealevel;temperature;humidity
71476;BME280;59286;59.274;17.974;2022-12-18T00:02:02;101774.41;;;-1.54;92.26
71476;BME280;59286;59.274;17.974;2022-12-18T00:04:28;101766.47;;;-1.59;92.18
71476;BME280;59286;59.274;17.974;2022-12-18T00:06:53;101785.97;;;-1.43;92.23
71476;BME280;59286;59.274;17.974;2022-12-18T00:09:20;101785.53;;;-1.47;92.39
71476;BME280;59286;59.274;17.974;2022-12-18T00:11:45;101743.91;;;-1.63;91.68
71476;BME280;59286;59.274;17.974;2022-12-18T00:14:12;101765.31;;;-1.56;92.13
71476;BME280;59286;59.274;17.974;2022-12-18T00:16:38;101764.38;;;-1.49;91.92
71476;BME280;59286;59.274;17.974;2022-12-18T00:19:04;101779.25;;;-1.44;92.46
71476;BME280;59286;59.274;17.974;2022-12-18T00:21:33;101749.66;;;-1.61;92.40
71476;BME280;59286;59.274;17.974;2022-12-18T00:23:59;101748.22;;;-1.64;92.47
71476;BME280;59286;59.274;17.974;2022-12-18T00:26:27;101773.44;;;-1.53;92.69
71476;BME280;59286;59.274;17.974;2022-12-18T00:28:54;101781.22;;;-1.46;92.77
71476;BME280;59286;59.274;17.974;2022-12-18T00:31:22;101779.25;;;-1.44;92.67
71476;BME280;59286;59.274;17.974;2022-12-18T00:33:48;101775.66;;;-1.50;92.47
71476;BME280;59286;59.274;17.974;2022-12-18T00:36:18;101761.75;;;-1.55;92.91
71476;BME280;59286;59.274;17.974;2022-12-18T00:38:45;101775.84;;;-1.51;92.61
71476;BME280;59286;59.274;17.974;2022-12-18T00:41:13;101758.16;;;-1.61;92.59
71476;BME280;59286;59.274;17.974;2022-12-18T00:43:39;101767.34;;;-1.45;92.69
71476;BME280;59286;59.274;17.974;2022-12-18T00:46:05;101773.38;;;-1.38;92.36
71476;BME280;59286;59.274;17.974;2022-12-18T00:48:30;101739.56;;;-1.63;92.35
71476;BME280;59286;59.274;17.974;2022-12-18T00:50:56;101764.19;;;-1.47;92.20
71476;BME280;59286;59.274;17.974;2022-12-18T00:53:21;101726.31;;;-1.60;91.85
71476;BME280;59286;59.274;17.974;2022-12-18T00:55:47;101761.13;;;-1.36;91.86
71476;BME280;59286;59.274;17.974;2022-12-18T00:58:14;101770.97;;;-1.40;92.53
71476;BME280;59286;59.274;17.974;2022-12-18T01:00:40;101758.63;;;-1.51;92.35
71476;BME280;59286;59.274;17.974;2022-12-18T01:03:06;101707.44;;;-1.73;92.17
71476;BME280;59286;59.274;17.974;2022-12-18T01:05:32;101766.59;;;-1.46;92.31
71476;BME280;59286;59.274;17.974;2022-12-18T01:07:58;101750.69;;;-1.56;92.56
71476;BME280;59286;59.274;17.974;2022-12-18T01:10:24;101728.38;;;-1.76;92.46
71476;BME280;59286;59.274;17.974;2022-12-18T01:12:49;101742.34;;;-1.58;92.26
71476;BME280;59286;59.274;17.974;2022-12-18T01:15:15;101718.72;;;-1.74;92.41
71476;BME280;59286;59.274;17.974;2022-12-18T01:17:41;101761.44;;;-1.46;92.33
71476;BME280;59286;59.274;17.974;2022-12-18T01:20:08;101760.97;;;-1.56;92.88
71476;BME280;59286;59.274;17.974;2022-12-18T01:22:34;101754.97;;;-1.63;92.68
71476;BME280;59286;59.274;17.974;2022-12-18T01:25:00;101738.75;;;-1.63;92.53
71476;BME280;59286;59.274;17.974;2022-12-18T01:27:26;101783.28;;;-1.35;92.38
71476;BME280;59286;59.274;17.974;2022-12-18T01:29:51;101744.28;;;-1.66;92.52
71476;BME280;59286;59.274;17.974;2022-12-18T01:32:17;101760.97;;;-1.56;92.45
71476;BME280;59286;59.274;17.974;2022-12-18T01:34:42;101725.63;;;-1.75;92.57
71476;BME280;59286;59.274;17.974;2022-12-18T01:37:08;101779.66;;;-1.41;92.21
71476;BME280;59286;59.274;17.974;2022-12-18T01:39:33;101766.59;;;-1.46;92.30
71476;BME280;59286;59.274;17.974;2022-12-18T01:42:00;101763.09;;;-1.38;92.08
71476;BME280;59286;59.274;17.974;2022-12-18T01:47:46;101750.59;;;-1.41;92.04
71476;BME280;59286;59.274;17.974;2022-12-18T01:53:11;101761.78;;;-1.21;91.67
71476;BME280;59286;59.274;17.974;2022-12-18T01:55:49;101752.63;;;-1.30;92.02
71476;BME280;59286;59.274;17.974;2022-12-18T01:58:16;101761.97;;;-1.23;91.64
71476;BME280;59286;59.274;17.974;2022-12-18T02:00:42;101737.78;;;-1.35;91.94
71476;BME280;59286;59.274;17.974;2022-12-18T02:03:07;101747.03;;;-1.40;91.79
71476;BME280;59286;59.274;17.974;2022-12-18T02:08:47;101761.97;;;-1.23;91.33
71476;BME280;59286;59.274;17.974;2022-12-18T02:11:30;101775.25;;;-1.19;91.93
71476;BME280;59286;59.274;17.974;2022-12-18T02:14:16;101762.03;;;-1.16;91.46
71476;BME280;59286;59.274;17.974;2022-12-18T02:22:40;101757.50;;;-1.14;91.06
71476;BME280;59286;59.274;17.974;2022-12-18T02:25:35;101761.44;;;-1.18;91.20
71476;BME280;59286;59.274;17.974;2022-12-18T02:28:07;101729.47;;;-1.37;91.29
71476;BME280;59286;59.274;17.974;2022-12-18T02:30:35;101745.41;;;-1.20;91.36
71476;BME280;59286;59.274;17.974;2022-12-18T02:33:04;101741.81;;;-1.19;91.04
71476;BME280;59286;59.274;17.974;2022-12-18T02:35:31;101755.28;;;-1.17;91.17
71476;BME280;59286;59.274;17.974;2022-12-18T02:37:58;101735.63;;;-1.31;91.30
71476;BME280;59286;59.274;17.974;2022-12-18T02:40:26;101741.06;;;-1.20;90.84
71476;BME280;59286;59.274;17.974;2022-12-18T02:42:52;101701.75;;;-1.41;90.85
71476;BME280;59286;59.274;17.974;2022-12-18T02:45:17;101737.53;;;-1.12;90.88
71476;BME280;59286;59.274;17.974;2022-12-18T02:47:46;101726.19;;;-1.24;90.62
71476;BME280;59286;59.274;17.974;2022-12-18T02:50:35;101732.31;;;-1.25;90.71
71476;BME280;59286;59.274;17.974;2022-12-18T03:01:02;101723.66;;;-1.18;90.49
71476;BME280;59286;59.274;17.974;2022-12-18T03:03:37;101726.81;;;-1.16;90.24
71476;BME280;59286;59.274;17.974;2022-12-18T03:06:08;101736.66;;;-1.26;90.83
71476;BME280;59286;59.274;17.974;2022-12-18T03:08:39;101693.72;;;-1.59;90.66
71476;BME280;59286;59.274;17.974;2022-12-18T03:11:10;101702.66;;;-1.55;90.94
71476;BME280;59286;59.274;17.974;2022-12-18T03:13:37;101689.00;;;-1.56;91.00
71476;BME280;59286;59.274;17.974;2022-12-18T03:16:06;101720.75;;;-1.36;91.04
71476;BME280;59286;59.274;17.974;2022-12-18T03:18:51;101712.84;;;-1.34;90.83
71476;BME280;59286;59.274;17.974;2022-12-18T03:21:21;101705.34;;;-1.36;90.92
71476;BME280;59286;59.274;17.974;2022-12-18T03:23:49;101722.03;;;-1.25;90.49
71476;BME280;59286;59.274;17.974;2022-12-18T03:26:19;101693.84;;;-1.40;90.28
71476;BME280;59286;59.274;17.974;2022-12-18T03:28:52;101688.88;;;-1.41;90.44
71476;BME280;59286;59.274;17.974;2022-12-18T03:31:21;101679.19;;;-1.46;90.51
71476;BME280;59286;59.274;17.974;2022-12-18T03:33:54;101721.44;;;-1.27;89.98
71476;BME280;59286;59.274;17.974;2022-12-18T03:36:20;101708.28;;;-1.39;90.12
71476;BME280;59286;59.274;17.974;2022-12-18T03:38:46;101690.81;;;-1.50;90.25
71476;BME280;59286;59.274;17.974;2022-12-18T03:41:31;101726.19;;;-1.24;90.03
71476;BME280;59286;59.274;17.974;2022-12-18T03:46:58;101718.06;;;-1.21;90.07
71476;BME280;59286;59.274;17.974;2022-12-18T03:52:49;101735.84;;;-1.26;90.18
71476;BME280;59286;59.274;17.974;2022-12-18T03:55:18;101723.22;;;-1.21;89.87
71476;BME280;59286;59.274;17.974;2022-12-18T03:57:45;101682.91;;;-1.48;89.72
71476;BME280;59286;59.274;17.974;2022-12-18T04:00:14;101657.13;;;-1.61;89.80
71476;BME280;59286;59.274;17.974;2022-12-18T04:02:45;101686.69;;;-1.44;90.09
71476;BME280;59286;59.274;17.974;2022-12-18T04:05:13;101704.03;;;-1.25;89.89
71476;BME280;59286;59.274;17.974;2022-12-18T04:07:39;101698.28;;;-1.27;90.03
71476;BME280;59286;59.274;17.974;2022-12-18T04:10:07;101690.63;;;-1.48;89.43
71476;BME280;59286;59.274;17.974;2022-12-18T04:12:34;101698.75;;;-1.45;89.46
71476;BME280;59286;59.274;17.974;2022-12-18T04:14:59;101692.13;;;-1.60;89.74
71476;BME280;59286;59.274;17.974;2022-12-18T04:17:24;101727.44;;;-1.41;90.14
71476;BME280;59286;59.274;17.974;2022-12-18T04:19:50;101688.56;;;-1.59;89.99
71476;BME280;59286;59.274;17.974;2022-12-18T04:22:15;101707.63;;;-1.47;90.00
71476;BME280;59286;59.274;17.974;2022-12-18T04:24:41;101713.16;;;-1.50;89.90
71476;BME280;59286;59.274;17.974;2022-12-18T04:27:06;101708.69;;;-1.42;90.08
71476;BME280;59286;59.274;17.974;2022-12-18T04:29:32;101709.63;;;-1.49;90.19
71476;BME280;59286;59.274;17.974;2022-12-18T04:31:57;101659.50;;;-1.87;90.00
71476;BME280;59286;59.274;17.974;2022-12-18T04:34:22;101690.81;;;-1.77;90.01
71476;BME280;59286;59.274;17.974;2022-12-18T04:36:48;101678.81;;;-1.70;90.18
71476;BME280;59286;59.274;17.974;2022-12-18T04:39:14;101692.50;;;-1.63;90.37
71476;BME280;59286;59.274;17.974;2022-12-18T04:41:39;101659.56;;;-1.81;89.42
71476;BME280;59286;59.274;17.974;2022-12-18T04:44:04;101719.50;;;-1.46;89.96
71476;BME280;59286;59.274;17.974;2022-12-18T04:46:30;101691.53;;;-1.62;89.95
71476;BME280;59286;59.274;17.974;2022-12-18T04:48:55;101676.66;;;-1.67;89.32
71476;BME280;59286;59.274;17.974;2022-12-18T04:51:21;101717.31;;;-1.49;89.64
71476;BME280;59286;59.274;17.974;2022-12-18T04:53:46;101658.03;;;-1.75;89.43
71476;BME280;59286;59.274;17.974;2022-12-18T04:56:14;101666.72;;;-1.76;89.79
71476;BME280;59286;59.274;17.974;2022-12-18T04:58:41;101703.94;;;-1.38;90.02
71476;BME280;59286;59.274;17.974;2022-12-18T05:01:08;101670.44;;;-1.51;89.14
71476;BME280;59286;59.274;17.974;2022-12-18T05:03:34;101679.13;;;-1.52;89.40
71476;BME280;59286;59.274;17.974;2022-12-18T05:05:59;101645.41;;;-1.70;89.79
71476;BME280;59286;59.274;17.974;2022-12-18T05:08:25;101682.31;;;-1.50;89.49
71476;BME280;59286;59.274;17.974;2022-12-18T05:11:01;101685.34;;;-1.40;89.54
71476;BME280;59286;59.274;17.974;2022-12-18T05:13:28;101642.72;;;-1.62;89.58
71476;BME280;59286;59.274;17.974;2022-12-18T05:15:54;101674.47;;;-1.42;89.26
71476;BME280;59286;59.274;17.974;2022-12-18T05:18:20;101660.53;;;-1.54;89.76
71476;BME280;59286;59.274;17.974;2022-12-18T05:20:46;101677.56;;;-1.47;89.73
71476;BME280;59286;59.274;17.974;2022-12-18T05:23:11;101670.88;;;-1.41;89.48
71476;BME280;59286;59.274;17.974;2022-12-18T05:25:36;101672.50;;;-1.40;89.65
71476;BME280;59286;59.274;17.974;2022-12-18T05:28:02;101650.25;;;-1.54;89.73
71476;BME280;59286;59.274;17.974;2022-12-18T05:30:27;101642.78;;;-1.49;89.76
71476;BME280;59286;59.274;17.974;2022-12-18T05:32:53;101637.81;;;-1.51;89.28
71476;BME280;59286;59.274;17.974;2022-12-18T05:35:18;101636.25;;;-1.45;89.21
71476;BME280;59286;59.274;17.974;2022-12-18T05:37:43;101663.84;;;-1.26;89.47
71476;BME280;59286;59.274;17.974;2022-12-18T05:40:10;101660.31;;;-1.25;89.21
71476;BME280;59286;59.274;17.974;2022-12-18T05:42:35;101634.69;;;-1.40;88.97
71476;BME280;59286;59.274;17.974;2022-12-18T05:45:01;101632.50;;;-1.49;89.13
71476;BME280;59286;59.274;17.974;2022-12-18T05:47:27;101662.63;;;-1.30;89.57
71476;BME280;59286;59.274;17.974;2022-12-18T05:49:52;101640.84;;;-1.34;89.17
71476;BME280;59286;59.274;17.974;2022-12-18T05:52:18;101655.13;;;-1.32;88.97
71476;BME280;59286;59.274;17.974;2022-12-18T05:54:43;101645.44;;;-1.36;88.87
71476;BME280;59286;59.274;17.974;2022-12-18T05:57:08;101648.22;;;-1.31;89.22
71476;BME280;59286;59.274;17.974;2022-12-18T05:59:34;101646.00;;;-1.34;89.16
71476;BME280;59286;59.274;17.974;2022-12-18T06:01:59;101635.34;;;-1.31;88.91
71476;BME280;59286;59.274;17.974;2022-12-18T06:04:26;101647.22;;;-1.30;88.65
71476;BME280;59286;59.274;17.974;2022-12-18T06:06:52;101646.03;;;-1.28;88.69
71476;BME280;59286;59.274;17.974;2022-12-18T06:09:18;101619.44;;;-1.48;88.85
71476;BME280;59286;59.274;17.974;2022-12-18T06:11:43;101591.66;;;-1.65;88.42
71476;BME280;59286;59.274;17.974;2022-12-18T06:14:09;101617.91;;;-1.42;88.83
71476;BME280;59286;59.274;17.974;2022-12-18T06:16:34;101629.41;;;-1.32;88.67
71476;BME280;59286;59.274;17.974;2022-12-18T06:19:02;101633.75;;;-1.32;88.75
71476;BME280;59286;59.274;17.974;2022-12-18T06:21:28;101624.41;;;-1.40;88.76
71476;BME280;59286;59.274;17.974;2022-12-18T06:23:54;101629.19;;;-1.37;88.75
71476;BME280;59286;59.274;17.974;2022-12-18T06:26:19;101624.00;;;-1.43;88.66
71476;BME280;59286;59.274;17.974;2022-12-18T06:28:44;101638.94;;;-1.26;88.52
71476;BME280;59286;59.274;17.974;2022-12-18T06:31:10;101622.69;;;-1.33;88.80
71476;BME280;59286;59.274;17.974;2022-12-18T06:33:36;101601.88;;;-1.38;89.01
71476;BME280;59286;59.274;17.974;2022-12-18T06:36:04;101611.06;;;-1.29;88.79
71476;BME280;59286;59.274;17.974;2022-12-18T06:38:32;101617.22;;;-1.17;88.68
71476;BME280;59286;59.274;17.974;2022-12-18T06:40:57;101581.50;;;-1.39;88.62
71476;BME280;59286;59.274;17.974;2022-12-18T06:43:23;101598.97;;;-1.28;88.83
71476;BME280;59286;59.274;17.974;2022-12-18T06:45:48;101588.31;;;-1.25;88.98
71476;BME280;59286;59.274;17.974;2022-12-18T06:48:18;101604.50;;;-1.25;89.06
71476;BME280;59286;59.274;17.974;2022-12-18T06:50:44;101594.00;;;-1.30;89.36
71476;BME280;59286;59.274;17.974;2022-12-18T06:53:10;101613.25;;;-1.19;89.53
71476;BME280;59286;59.274;17.974;2022-12-18T06:55:35;101595.03;;;-1.24;89.47
71476;BME280;59286;59.274;17.974;2022-12-18T06:58:02;101610.09;;;-1.08;89.42
71476;BME280;59286;59.274;17.974;2022-12-18T07:00:27;101613.13;;;-1.05;89.48
71476;BME280;59286;59.274;17.974;2022-12-18T07:02:52;101559.59;;;-1.35;89.92
71476;BME280;59286;59.274;17.974;2022-12-18T07:05:18;101594.06;;;-1.17;89.88
71476;BME280;59286;59.274;17.974;2022-12-18T07:07:43;101602.78;;;-1.11;89.78
71476;BME280;59286;59.274;17.974;2022-12-18T07:10:09;101596.84;;;-1.12;90.06
71476;BME280;59286;59.274;17.974;2022-12-18T07:12:34;101628.75;;;-0.93;89.84
71476;BME280;59286;59.274;17.974;2022-12-18T07:14:59;101611.13;;;-1.03;90.10
71476;BME280;59286;59.274;17.974;2022-12-18T07:17:25;101620.47;;;-0.88;89.67
71476;BME280;59286;59.274;17.974;2022-12-18T07:19:50;101601.44;;;-1.01;89.99
71476;BME280;59286;59.274;17.974;2022-12-18T07:22:15;101608.38;;;-0.94;89.47
71476;BME280;59286;59.274;17.974;2022-12-18T07:24:41;101620.69;;;-0.83;90.29
71476;BME280;59286;59.274;17.974;2022-12-18T07:27:06;101594.50;;;-1.00;89.93
71476;BME280;59286;59.274;17.974;2022-12-18T07:29:31;101572.13;;;-1.06;89.66
71476;BME280;59286;59.274;17.974;2022-12-18T07:31:56;101589.81;;;-0.83;89.56
71476;BME280;59286;59.274;17.974;2022-12-18T07:34:22;101573.38;;;-0.89;89.41
71476;BME280;59286;59.274;17.974;2022-12-18T07:36:47;101585.66;;;-0.78;89.85
71476;BME280;59286;59.274;17.974;2022-12-18T07:39:12;101577.16;;;-0.78;89.55
71476;BME280;59286;59.274;17.974;2022-12-18T07:41:38;101589.25;;;-0.66;89.44
71476;BME280;59286;59.274;17.974;2022-12-18T07:44:10;101578.34;;;-0.68;89.46
71476;BME280;59286;59.274;17.974;2022-12-18T07:46:35;101576.59;;;-0.61;89.28
71476;BME280;59286;59.274;17.974;2022-12-18T07:49:01;101607.31;;;-0.40;89.35
71476;BME280;59286;59.274;17.974;2022-12-18T07:51:26;101571.84;;;-0.64;89.35
71476;BME280;59286;59.274;17.974;2022-12-18T07:53:51;101584.69;;;-0.57;89.52
71476;BME280;59286;59.274;17.974;2022-12-18T07:56:17;101607.69;;;-0.43;89.49
71476;BME280;59286;59.274;17.974;2022-12-18T07:58:42;101594.03;;;-0.56;90.10
71476;BME280;59286;59.274;17.974;2022-12-18T08:01:13;101575.78;;;-0.68;89.65
71476;BME280;59286;59.274;17.974;2022-12-18T08:03:39;101599.94;;;-0.56;89.66
71476;BME280;59286;59.274;17.974;2022-12-18T08:06:08;101633.84;;;-0.33;89.46
71476;BME280;59286;59.274;17.974;2022-12-18T08:08:34;101582.50;;;-0.67;90.14
71476;BME280;59286;59.274;17.974;2022-12-18T08:10:59;101628.09;;;-0.35;89.53
71476;BME280;59286;59.274;17.974;2022-12-18T08:13:25;101620.19;;;-0.27;89.14
71476;BME280;59286;59.274;17.974;2022-12-18T08:16:03;101614.63;;;-0.37;89.66
71476;BME280;59286;59.274;17.974;2022-12-18T08:18:29;101630.09;;;-0.24;89.56
71476;BME280;59286;59.274;17.974;2022-12-18T08:20:55;101601.75;;;-0.37;90.07
71476;BME280;59286;59.274;17.974;2022-12-18T08:23:21;101609.09;;;-0.21;89.85
71476;BME280;59286;59.274;17.974;2022-12-18T08:25:46;101611.09;;;-0.23;89.60
71476;BME280;59286;59.274;17.974;2022-12-18T08:28:12;101608.50;;;-0.23;89.64
71476;BME280;59286;59.274;17.974;2022-12-18T08:30:37;101586.09;;;-0.35;89.09
71476;BME280;59286;59.274;17.974;2022-12-18T08:33:03;101595.03;;;-0.25;89.81
71476;BME280;59286;59.274;17.974;2022-12-18T08:35:28;101586.28;;;-0.24;89.82
71476;BME280;59286;59.274;17.974;2022-12-18T08:37:53;101602.53;;;-0.17;90.00
71476;BME280;59286;59.274;17.974;2022-12-18T08:40:19;101599.56;;;-0.20;90.07
71476;BME280;59286;59.274;17.974;2022-12-18T08:42:44;101604.34;;;-0.04;89.83
71476;BME280;59286;59.274;17.974;2022-12-18T08:45:28;101614.63;;;0.03;89.77
71476;BME280;59286;59.274;17.974;2022-12-18T08:47:54;101620.78;;;0.02;89.70
71476;BME280;59286;59.274;17.974;2022-12-18T08:50:20;101602.53;;;-0.04;89.93
71476;BME280;59286;59.274;17.974;2022-12-18T08:52:45;101567.88;;;-0.14;89.87
71476;BME280;59286;59.274;17.974;2022-12-18T08:55:11;101603.13;;;0.05;89.98
71476;BME280;59286;59.274;17.974;2022-12-18T08:57:36;101598.38;;;0.09;89.89
71476;BME280;59286;59.274;17.974;2022-12-18T09:00:03;101613.81;;;0.22;89.50
71476;BME280;59286;59.274;17.974;2022-12-18T09:02:28;101621.72;;;0.27;89.47
71476;BME280;59286;59.274;17.974;2022-12-18T09:04:54;101619.16;;;0.27;89.67
71476;BME280;59286;59.274;17.974;2022-12-18T09:07:19;101613.19;;;0.33;89.40
71476;BME280;59286;59.274;17.974;2022-12-18T09:09:44;101607.84;;;0.41;89.46
71476;BME280;59286;59.274;17.974;2022-12-18T09:12:10;101567.25;;;0.17;89.05
71476;BME280;59286;59.274;17.974;2022-12-18T09:14:35;101603.44;;;0.41;89.38
71476;BME280;59286;59.274;17.974;2022-12-18T09:17:01;101606.19;;;0.53;88.89
71476;BME280;59286;59.274;17.974;2022-12-18T09:19:26;101582.44;;;0.38;88.65
71476;BME280;59286;59.274;17.974;2022-12-18T09:21:51;101618.88;;;0.54;89.01
71476;BME280;59286;59.274;17.974;2022-12-18T09:24:17;101572.50;;;0.48;88.82
71476;BME280;59286;59.274;17.974;2022-12-18T09:26:42;101582.00;;;0.54;88.54
71476;BME280;59286;59.274;17.974;2022-12-18T09:29:08;101562.56;;;0.58;88.43
71476;BME280;59286;59.274;17.974;2022-12-18T09:31:34;101577.56;;;0.74;88.37
71476;BME280;59286;59.274;17.974;2022-12-18T09:33:59;101561.72;;;0.64;88.19
71476;BME280;59286;59.274;17.974;2022-12-18T09:36:25;101587.00;;;0.93;88.50
71476;BME280;59286;59.274;17.974;2022-12-18T09:38:50;101553.16;;;0.70;88.44
71476;BME280;59286;59.274;17.974;2022-12-18T09:43:53;101546.91;;;0.84;88.44
71476;BME280;59286;59.274;17.974;2022-12-18T09:46:31;101580.75;;;1.07;88.58
71476;BME280;59286;59.274;17.974;2022-12-18T09:49:05;101574.97;;;1.12;88.55
71476;BME280;59286;59.274;17.974;2022-12-18T09:51:36;101557.16;;;1.04;88.81
71476;BME280;59286;59.274;17.974;2022-12-18T09:54:10;101511.38;;;0.86;88.49
71476;BME280;59286;59.274;17.974;2022-12-18T09:56:40;101502.66;;;0.87;88.49
71476;BME280;59286;59.274;17.974;2022-12-18T09:59:18;101544.00;;;1.12;88.86
71476;BME280;59286;59.274;17.974;2022-12-18T10:01:47;101551.09;;;1.16;89.02
71476;BME280;59286;59.274;17.974;2022-12-18T10:04:12;101486.69;;;0.72;89.12
71476;BME280;59286;59.274;17.974;2022-12-18T10:06:43;101549.09;;;1.18;89.27
71476;BME280;59286;59.274;17.974;2022-12-18T10:17:36;101543.13;;;1.24;89.03
71476;BME280;59286;59.274;17.974;2022-12-18T10:20:05;101543.69;;;1.26;88.76
71476;BME280;59286;59.274;17.974;2022-12-18T10:22:53;101518.28;;;1.23;88.78
71476;BME280;59286;59.274;17.974;2022-12-18T10:27:47;101522.69;;;1.23;89.05
71476;BME280;59286;59.274;17.974;2022-12-18T10:30:16;101528.94;;;1.33;89.40
71476;BME280;59286;59.274;17.974;2022-12-18T10:32:42;101496.69;;;1.18;88.91
71476;BME280;59286;59.274;17.974;2022-12-18T10:35:22;101518.34;;;1.17;88.43
71476;BME280;59286;59.274;17.974;2022-12-18T10:41:00;101506.44;;;1.16;88.75
71476;BME280;59286;59.274;17.974;2022-12-18T10:48:40;101482.59;;;0.89;89.03
71476;BME280;59286;59.274;17.974;2022-12-18T10:51:21;101542.69;;;1.27;89.42
71476;BME280;59286;59.274;17.974;2022-12-18T10:53:52;101512.66;;;1.08;89.79
71476;BME280;59286;59.274;17.974;2022-12-18T10:56:20;101487.91;;;0.94;89.62
71476;BME280;59286;59.274;17.974;2022-12-18T10:58:59;101483.34;;;0.96;89.51
71476;BME280;59286;59.274;17.974;2022-12-18T11:01:24;101519.66;;;1.26;89.58
71476;BME280;59286;59.274;17.974;2022-12-18T11:06:21;101522.31;;;1.19;89.50
71476;BME280;59286;59.274;17.974;2022-12-18T11:09:05;101484.91;;;0.97;89.16
71476;BME280;59286;59.274;17.974;2022-12-18T11:12:14;101501.47;;;1.14;89.46
71476;BME280;59286;59.274;17.974;2022-12-18T11:17:35;101518.72;;;1.20;89.20
71476;BME280;59286;59.274;17.974;2022-12-18T11:22:29;101475.44;;;0.91;89.25
71476;BME280;59286;59.274;17.974;2022-12-18T11:25:18;101503.53;;;1.06;89.29
71476;BME280;59286;59.274;17.974;2022-12-18T11:28:25;101542.50;;;1.29;89.19
71476;BME280;59286;59.274;17.974;2022-12-18T11:30:49;101500.88;;;1.12;89.46
71476;BME280;59286;59.274;17.974;2022-12-18T11:33:33;101520.47;;;1.26;89.23
71476;BME280;59286;59.274;17.974;2022-12-18T11:36:00;101535.44;;;1.42;89.34
71476;BME280;59286;59.274;17.974;2022-12-18T11:38:31;101523.34;;;1.36;89.24
71476;BME280;59286;59.274;17.974;2022-12-18T11:41:19;101501.84;;;1.18;89.50
71476;BME280;59286;59.274;17.974;2022-12-18T11:43:54;101518.00;;;1.38;89.56
71476;BME280;59286;59.274;17.974;2022-12-18T11:46:42;101519.19;;;1.35;89.38
71476;BME280;59286;59.274;17.974;2022-12-18T11:49:20;101503.38;;;1.25;89.26
71476;BME280;59286;59.274;17.974;2022-12-18T11:51:53;101512.50;;;1.28;89.42
71476;BME280;59286;59.274;17.974;2022-12-18T11:54:21;101495.16;;;1.10;89.82
71476;BME280;59286;59.274;17.974;2022-12-18T11:56:53;101448.47;;;0.87;89.56
71476;BME280;59286;59.274;17.974;2022-12-18T11:59:27;101504.25;;;1.19;89.87
71476;BME280;59286;59.274;17.974;2022-12-18T12:02:13;101496.75;;;1.11;89.86
71476;BME280;59286;59.274;17.974;2022-12-18T12:04:45;101532.25;;;1.40;90.04
71476;BME280;59286;59.274;17.974;2022-12-18T12:07:45;101448.59;;;0.98;89.55
71476;BME280;59286;59.274;17.974;2022-12-18T12:22:06;101512.47;;;1.34;90.38
71476;BME280;59286;59.274;17.974;2022-12-18T12:35:21;101531.69;;;1.38;90.88
71476;BME280;59286;59.274;17.974;2022-12-18T12:38:08;101511.13;;;1.25;90.97
71476;BME280;59286;59.274;17.974;2022-12-18T12:40:45;101522.59;;;1.36;90.79
71476;BME280;59286;59.274;17.974;2022-12-18T12:45:49;101499.38;;;1.29;91.02
71476;BME280;59286;59.274;17.974;2022-12-18T12:50:49;101534.97;;;1.52;91.18
71476;BME280;59286;59.274;17.974;2022-12-18T12:53:26;101528.50;;;1.61;91.20
71476;BME280;59286;59.274;17.974;2022-12-18T12:55:54;101537.06;;;1.61;91.13
71476;BME280;59286;59.274;17.974;2022-12-18T12:58:29;101542.38;;;1.66;91.08
71476;BME280;59286;59.274;17.974;2022-12-18T13:04:06;101546.13;;;1.70;91.33
71476;BME280;59286;59.274;17.974;2022-12-18T13:06:39;101526.50;;;1.63;91.20
71476;BME280;59286;59.274;17.974;2022-12-18T13:09:07;101537.38;;;1.71;91.18
71476;BME280;59286;59.274;17.974;2022-12-18T13:11:34;101556.19;;;1.78;91.12
71476;BME280;59286;59.274;17.974;2022-12-18T13:14:24;101538.94;;;1.72;90.84
71476;BME280;59286;59.274;17.974;2022-12-18T13:16:51;101533.00;;;1.72;91.08
71476;BME280;59286;59.274;17.974;2022-12-18T13:19:25;101537.78;;;1.68;91.15
71476;BME280;59286;59.274;17.974;2022-12-18T13:21:56;101513.59;;;1.63;90.95
71476;BME280;59286;59.274;17.974;2022-12-18T13:24:27;101533.34;;;1.75;91.38
71476;BME280;59286;59.274;17.974;2022-12-18T13:26:55;101491.84;;;1.52;90.71
71476;BME280;59286;59.274;17.974;2022-12-18T13:29:43;101531.31;;;1.84;91.43
71476;BME280;59286;59.274;17.974;2022-12-18T13:32:22;101539.41;;;1.87;90.94
71476;BME280;59286;59.274;17.974;2022-12-18T13:34:47;101510.09;;;1.75;91.15
71476;BME280;59286;59.274;17.974;2022-12-18T13:39:56;101485.25;;;1.56;91.54
71476;BME280;59286;59.274;17.974;2022-12-18T13:42:40;101492.56;;;1.59;90.87
71476;BME280;59286;59.274;17.974;2022-12-18T13:48:14;101502.72;;;1.79;91.57
71476;BME280;59286;59.274;17.974;2022-12-18T13:50:40;101514.84;;;1.78;91.37
71476;BME280;59286;59.274;17.974;2022-12-18T13:53:06;101484.59;;;1.61;91.66
71476;BME280;59286;59.274;17.974;2022-12-18T13:55:32;101475.75;;;1.50;91.89
71476;BME280;59286;59.274;17.974;2022-12-18T13:58:05;101485.66;;;1.53;91.70
71476;BME280;59286;59.274;17.974;2022-12-18T14:00:31;101487.50;;;1.46;91.89
71476;BME280;59286;59.274;17.974;2022-12-18T14:02:57;101518.53;;;1.64;92.04
71476;BME280;59286;59.274;17.974;2022-12-18T14:05:28;101536.81;;;1.69;92.42
71476;BME280;59286;59.274;17.974;2022-12-18T14:07:55;101478.31;;;1.32;92.38
71476;BME280;59286;59.274;17.974;2022-12-18T14:10:25;101495.47;;;1.45;92.60
71476;BME280;59286;59.274;17.974;2022-12-18T14:12:51;101480.41;;;1.42;92.79
71476;BME280;59286;59.274;17.974;2022-12-18T14:17:57;101489.66;;;1.49;92.06
71476;BME280;59286;59.274;17.974;2022-12-18T14:20:24;101528.88;;;1.64;92.18
71476;BME280;59286;59.274;17.974;2022-12-18T14:22:51;101510.75;;;1.46;92.22
71476;BME280;59286;59.274;17.974;2022-12-18T14:25:22;101545.13;;;1.71;92.24
71476;BME280;59286;59.274;17.974;2022-12-18T14:27:53;101544.75;;;1.68;92.52
71476;BME280;59286;59.274;17.974;2022-12-18T14:30:29;101547.16;;;1.69;92.15